sensor_id;sensor_type;location;lat;lon;timestamp;temperature;humidity
67101;DHT22;54019;61.746;16.106;2022-11-18T00:01:04;21.20;35.60
67101;DHT22;54019;61.746;16.106;2022-11-18T00:03:29;21.20;35.00
67101;DHT22;54019;61.746;16.106;2022-11-18T00:05:56;21.20;35.00
67101;DHT22;54019;61.746;16.106;2022-11-18T00:08:24;21.20;34.80
67101;DHT22;54019;61.746;16.106;2022-11-18T00:10:51;21.10;34.80
67101;DHT22;54019;61.746;16.106;2022-11-18T00:13:17;21.10;34.90
67101;DHT22;54019;61.746;16.106;2022-11-18T00:15:43;21.10;34.90
67101;DHT22;54019;61.746;16.106;2022-11-18T00:18:09;21.10;34.90
67101;DHT22;54019;61.746;16.106;2022-11-18T00:20:35;21.20;34.80
67101;DHT22;54019;61.746;16.106;2022-11-18T00:23:00;21.20;34.80
67101;DHT22;54019;61.746;16.106;2022-11-18T00:25:27;21.10;34.80
67101;DHT22;54019;61.746;16.106;2022-11-18T00:27:53;21.10;34.90
67101;DHT22;54019;61.746;16.106;2022-11-18T00:30:19;21.10;34.90
67101;DHT22;54019;61.746;16.106;2022-11-18T00:32:45;21.10;34.90
67101;DHT22;54019;61.746;16.106;2022-11-18T00:35:11;21.10;34.90
67101;DHT22;54019;61.746;16.106;2022-11-18T00:37:36;21.10;35.00
67101;DHT22;54019;61.746;16.106;2022-11-18T00:40:03;21.10;35.10
67101;DHT22;54019;61.746;16.106;2022-11-18T00:42:30;21.10;34.90
67101;DHT22;54019;61.746;16.106;2022-11-18T00:44:56;21.10;35.00
67101;DHT22;54019;61.746;16.106;2022-11-18T00:47:21;21.10;35.00
67101;DHT22;54019;61.746;16.106;2022-11-18T00:49:47;21.10;35.00
67101;DHT22;54019;61.746;16.106;2022-11-18T00:52:13;21.10;35.00
67101;DHT22;54019;61.746;16.106;2022-11-18T00:54:39;21.10;35.00
67101;DHT22;54019;61.746;16.106;2022-11-18T00:57:05;21.10;34.90
67101;DHT22;54019;61.746;16.106;2022-11-18T00:59:32;21.10;34.80
67101;DHT22;54019;61.746;16.106;2022-11-18T01:01:58;21.10;34.70
67101;DHT22;54019;61.746;16.106;2022-11-18T01:04:23;21.10;35.00
67101;DHT22;54019;61.746;16.106;2022-11-18T01:06:49;21.10;35.00
67101;DHT22;54019;61.746;16.106;2022-11-18T01:09:15;21.10;35.00
67101;DHT22;54019;61.746;16.106;2022-11-18T01:11:41;21.10;34.70
67101;DHT22;54019;61.746;16.106;2022-11-18T01:14:07;21.10;34.90
67101;DHT22;54019;61.746;16.106;2022-11-18T01:16:34;21.10;35.00
67101;DHT22;54019;61.746;16.106;2022-11-18T01:18:59;21.10;35.00
67101;DHT22;54019;61.746;16.106;2022-11-18T01:21:25;21.10;35.10
67101;DHT22;54019;61.746;16.106;2022-11-18T01:23:52;21.10;35.00
67101;DHT22;54019;61.746;16.106;2022-11-18T01:26:18;21.10;35.60
67101;DHT22;54019;61.746;16.106;2022-11-18T01:28:44;21.10;35.10
67101;DHT22;54019;61.746;16.106;2022-11-18T01:31:12;21.10;34.80
67101;DHT22;54019;61.746;16.106;2022-11-18T01:33:39;21.10;35.10
67101;DHT22;54019;61.746;16.106;2022-11-18T01:36:14;21.10;35.00
67101;DHT22;54019;61.746;16.106;2022-11-18T01:38:39;21.10;35.00
67101;DHT22;54019;61.746;16.106;2022-11-18T01:41:05;21.10;34.90
67101;DHT22;54019;61.746;16.106;2022-11-18T01:43:47;21.10;35.10
67101;DHT22;54019;61.746;16.106;2022-11-18T01:46:13;21.10;35.00
67101;DHT22;54019;61.746;16.106;2022-11-18T01:48:41;21.10;35.00
67101;DHT22;54019;61.746;16.106;2022-11-18T01:51:09;21.10;35.10
67101;DHT22;54019;61.746;16.106;2022-11-18T01:53:41;21.00;35.00
67101;DHT22;54019;61.746;16.106;2022-11-18T01:56:11;21.10;35.10
67101;DHT22;54019;61.746;16.106;2022-11-18T01:58:40;21.00;35.10
67101;DHT22;54019;61.746;16.106;2022-11-18T02:01:07;21.10;35.30
67101;DHT22;54019;61.746;16.106;2022-11-18T02:03:33;21.00;35.10
67101;DHT22;54019;61.746;16.106;2022-11-18T02:06:03;21.00;35.10
67101;DHT22;54019;61.746;16.106;2022-11-18T02:08:29;21.00;35.70
67101;DHT22;54019;61.746;16.106;2022-11-18T02:10:56;21.00;34.90
67101;DHT22;54019;61.746;16.106;2022-11-18T02:13:22;21.00;34.90
67101;DHT22;54019;61.746;16.106;2022-11-18T02:15:54;21.00;35.00
67101;DHT22;54019;61.746;16.106;2022-11-18T02:18:33;21.00;35.00
67101;DHT22;54019;61.746;16.106;2022-11-18T02:21:10;21.10;35.00
67101;DHT22;54019;61.746;16.106;2022-11-18T02:23:58;21.00;35.00
67101;DHT22;54019;61.746;16.106;2022-11-18T02:29:38;21.10;35.10
67101;DHT22;54019;61.746;16.106;2022-11-18T02:32:10;21.00;35.00
67101;DHT22;54019;61.746;16.106;2022-11-18T02:34:40;21.00;34.90
67101;DHT22;54019;61.746;16.106;2022-11-18T02:37:13;21.00;35.00
67101;DHT22;54019;61.746;16.106;2022-11-18T02:39:46;21.00;35.00
67101;DHT22;54019;61.746;16.106;2022-11-18T02:42:14;21.00;35.00
67101;DHT22;54019;61.746;16.106;2022-11-18T02:44:46;21.00;35.00
67101;DHT22;54019;61.746;16.106;2022-11-18T02:47:15;21.00;35.00
67101;DHT22;54019;61.746;16.106;2022-11-18T02:49:44;21.00;35.00
67101;DHT22;54019;61.746;16.106;2022-11-18T02:52:13;21.00;35.00
67101;DHT22;54019;61.746;16.106;2022-11-18T02:54:40;21.00;35.00
67101;DHT22;54019;61.746;16.106;2022-11-18T02:57:09;21.00;35.10
67101;DHT22;54019;61.746;16.106;2022-11-18T02:59:35;21.00;35.10
67101;DHT22;54019;61.746;16.106;2022-11-18T03:02:02;21.00;35.00
67101;DHT22;54019;61.746;16.106;2022-11-18T03:04:29;21.00;34.90
67101;DHT22;54019;61.746;16.106;2022-11-18T03:07:03;21.00;35.00
67101;DHT22;54019;61.746;16.106;2022-11-18T03:09:34;21.00;35.00
67101;DHT22;54019;61.746;16.106;2022-11-18T03:12:10;21.00;34.70
67101;DHT22;54019;61.746;16.106;2022-11-18T03:14:42;21.00;35.00
67101;DHT22;54019;61.746;16.106;2022-11-18T03:17:13;21.00;35.00
67101;DHT22;54019;61.746;16.106;2022-11-18T03:19:55;21.00;35.60
67101;DHT22;54019;61.746;16.106;2022-11-18T03:22:26;21.00;34.90
67101;DHT22;54019;61.746;16.106;2022-11-18T03:25:01;21.00;34.90
67101;DHT22;54019;61.746;16.106;2022-11-18T03:27:28;21.00;35.00
67101;DHT22;54019;61.746;16.106;2022-11-18T03:29:58;21.00;34.80
67101;DHT22;54019;61.746;16.106;2022-11-18T03:32:30;21.00;35.00
67101;DHT22;54019;61.746;16.106;2022-11-18T03:34:59;21.00;35.00
67101;DHT22;54019;61.746;16.106;2022-11-18T03:37:27;20.90;34.90
67101;DHT22;54019;61.746;16.106;2022-11-18T03:40:00;20.90;35.00
67101;DHT22;54019;61.746;16.106;2022-11-18T03:42:30;20.90;35.00
67101;DHT22;54019;61.746;16.106;2022-11-18T03:45:01;21.00;35.00
67101;DHT22;54019;61.746;16.106;2022-11-18T03:47:32;20.90;35.00
67101;DHT22;54019;61.746;16.106;2022-11-18T03:50:01;20.90;35.00
67101;DHT22;54019;61.746;16.106;2022-11-18T03:52:30;20.90;35.00
67101;DHT22;54019;61.746;16.106;2022-11-18T03:54:59;21.00;35.00
67101;DHT22;54019;61.746;16.106;2022-11-18T03:57:31;20.90;35.00
67101;DHT22;54019;61.746;16.106;2022-11-18T04:00:05;20.90;35.00
67101;DHT22;54019;61.746;16.106;2022-11-18T04:02:34;20.90;35.00
67101;DHT22;54019;61.746;16.106;2022-11-18T04:05:02;20.90;35.00
67101;DHT22;54019;61.746;16.106;2022-11-18T04:07:32;20.90;34.90
67101;DHT22;54019;61.746;16.106;2022-11-18T04:10:02;20.90;35.00
67101;DHT22;54019;61.746;16.106;2022-11-18T04:12:32;21.00;35.00
67101;DHT22;54019;61.746;16.106;2022-11-18T04:14:59;20.90;35.10
67101;DHT22;54019;61.746;16.106;2022-11-18T04:17:27;20.90;35.10
67101;DHT22;54019;61.746;16.106;2022-11-18T04:19:54;21.00;35.00
67101;DHT22;54019;61.746;16.106;2022-11-18T04:22:20;21.10;34.50
67101;DHT22;54019;61.746;16.106;2022-11-18T04:24:46;21.30;33.90
67101;DHT22;54019;61.746;16.106;2022-11-18T04:27:12;21.30;33.70
67101;DHT22;54019;61.746;16.106;2022-11-18T04:29:38;21.40;33.50
67101;DHT22;54019;61.746;16.106;2022-11-18T04:32:04;21.40;33.30
67101;DHT22;54019;61.746;16.106;2022-11-18T04:34:30;21.40;33.20
67101;DHT22;54019;61.746;16.106;2022-11-18T04:36:58;21.40;33.30
67101;DHT22;54019;61.746;16.106;2022-11-18T04:39:24;21.40;33.40
67101;DHT22;54019;61.746;16.106;2022-11-18T04:41:50;21.40;33.60
67101;DHT22;54019;61.746;16.106;2022-11-18T04:44:15;21.40;33.90
67101;DHT22;54019;61.746;16.106;2022-11-18T04:46:42;21.40;33.80
67101;DHT22;54019;61.746;16.106;2022-11-18T04:49:09;21.40;33.60
67101;DHT22;54019;61.746;16.106;2022-11-18T04:51:35;21.40;33.30
67101;DHT22;54019;61.746;16.106;2022-11-18T04:54:03;21.40;33.00
67101;DHT22;54019;61.746;16.106;2022-11-18T04:56:29;21.50;32.90
67101;DHT22;54019;61.746;16.106;2022-11-18T04:58:55;21.60;32.70
67101;DHT22;54019;61.746;16.106;2022-11-18T05:01:22;21.60;32.60
67101;DHT22;54019;61.746;16.106;2022-11-18T05:03:48;21.60;32.50
67101;DHT22;54019;61.746;16.106;2022-11-18T05:06:15;21.70;32.90
67101;DHT22;54019;61.746;16.106;2022-11-18T05:08:41;21.70;33.00
67101;DHT22;54019;61.746;16.106;2022-11-18T05:11:08;21.80;33.00
67101;DHT22;54019;61.746;16.106;2022-11-18T05:13:34;21.80;32.90
67101;DHT22;54019;61.746;16.106;2022-11-18T05:16:00;21.80;32.90
67101;DHT22;54019;61.746;16.106;2022-11-18T05:18:26;21.70;32.90
67101;DHT22;54019;61.746;16.106;2022-11-18T05:20:52;21.80;33.20
67101;DHT22;54019;61.746;16.106;2022-11-18T05:23:17;21.70;33.10
67101;DHT22;54019;61.746;16.106;2022-11-18T05:25:43;21.70;33.10
67101;DHT22;54019;61.746;16.106;2022-11-18T05:28:10;21.70;33.00
67101;DHT22;54019;61.746;16.106;2022-11-18T05:30:36;21.80;32.80
67101;DHT22;54019;61.746;16.106;2022-11-18T05:33:02;21.90;32.60
67101;DHT22;54019;61.746;16.106;2022-11-18T05:35:28;21.90;32.40
67101;DHT22;54019;61.746;16.106;2022-11-18T05:37:54;22.00;32.40
67101;DHT22;54019;61.746;16.106;2022-11-18T05:40:19;22.00;32.30
67101;DHT22;54019;61.746;16.106;2022-11-18T05:42:45;22.00;32.20
67101;DHT22;54019;61.746;16.106;2022-11-18T05:45:12;21.90;32.30
67101;DHT22;54019;61.746;16.106;2022-11-18T05:47:38;21.90;32.50
67101;DHT22;54019;61.746;16.106;2022-11-18T05:50:05;21.90;32.60
67101;DHT22;54019;61.746;16.106;2022-11-18T05:52:31;21.80;32.50
67101;DHT22;54019;61.746;16.106;2022-11-18T05:54:57;21.80;32.90
67101;DHT22;54019;61.746;16.106;2022-11-18T05:57:23;21.80;32.70
67101;DHT22;54019;61.746;16.106;2022-11-18T05:59:49;21.80;32.70
67101;DHT22;54019;61.746;16.106;2022-11-18T06:02:18;21.80;32.60
67101;DHT22;54019;61.746;16.106;2022-11-18T06:04:49;21.80;32.30
67101;DHT22;54019;61.746;16.106;2022-11-18T06:07:18;21.90;33.00
67101;DHT22;54019;61.746;16.106;2022-11-18T06:09:47;22.00;33.20
67101;DHT22;54019;61.746;16.106;2022-11-18T06:12:16;22.00;34.30
67101;DHT22;54019;61.746;16.106;2022-11-18T06:14:46;22.10;36.10
67101;DHT22;54019;61.746;16.106;2022-11-18T06:17:17;22.10;36.30
67101;DHT22;54019;61.746;16.106;2022-11-18T06:19:45;22.10;34.40
67101;DHT22;54019;61.746;16.106;2022-11-18T06:22:11;22.10;34.00
67101;DHT22;54019;61.746;16.106;2022-11-18T06:24:37;22.10;34.00
67101;DHT22;54019;61.746;16.106;2022-11-18T06:27:03;22.00;34.40
67101;DHT22;54019;61.746;16.106;2022-11-18T06:29:30;22.00;34.30
67101;DHT22;54019;61.746;16.106;2022-11-18T06:31:55;21.90;34.30
67101;DHT22;54019;61.746;16.106;2022-11-18T06:34:23;21.90;34.20
67101;DHT22;54019;61.746;16.106;2022-11-18T06:36:49;21.90;34.00
67101;DHT22;54019;61.746;16.106;2022-11-18T06:39:14;22.00;33.80
67101;DHT22;54019;61.746;16.106;2022-11-18T06:41:40;22.00;33.80
67101;DHT22;54019;61.746;16.106;2022-11-18T06:44:06;22.00;33.70
67101;DHT22;54019;61.746;16.106;2022-11-18T06:46:32;22.10;33.60
67101;DHT22;54019;61.746;16.106;2022-11-18T06:48:58;22.10;33.60
67101;DHT22;54019;61.746;16.106;2022-11-18T06:51:26;22.10;33.60
67101;DHT22;54019;61.746;16.106;2022-11-18T06:53:52;22.00;33.50
67101;DHT22;54019;61.746;16.106;2022-11-18T06:56:20;22.00;33.50
67101;DHT22;54019;61.746;16.106;2022-11-18T06:58:46;22.00;33.50
67101;DHT22;54019;61.746;16.106;2022-11-18T07:01:13;22.00;33.50
67101;DHT22;54019;61.746;16.106;2022-11-18T07:03:40;22.00;33.50
67101;DHT22;54019;61.746;16.106;2022-11-18T07:06:07;21.90;33.60
67101;DHT22;54019;61.746;16.106;2022-11-18T07:08:35;21.90;33.50
67101;DHT22;54019;61.746;16.106;2022-11-18T07:11:01;21.90;33.40
67101;DHT22;54019;61.746;16.106;2022-11-18T07:13:27;21.90;33.00
67101;DHT22;54019;61.746;16.106;2022-11-18T07:15:52;21.90;32.90
67101;DHT22;54019;61.746;16.106;2022-11-18T07:18:18;22.00;33.20
67101;DHT22;54019;61.746;16.106;2022-11-18T07:20:44;22.10;33.50
67101;DHT22;54019;61.746;16.106;2022-11-18T07:23:12;22.10;33.30
67101;DHT22;54019;61.746;16.106;2022-11-18T07:25:40;22.20;33.40
67101;DHT22;54019;61.746;16.106;2022-11-18T07:28:05;22.20;33.40
67101;DHT22;54019;61.746;16.106;2022-11-18T07:30:31;22.20;33.50
67101;DHT22;54019;61.746;16.106;2022-11-18T07:32:57;22.20;33.50
67101;DHT22;54019;61.746;16.106;2022-11-18T07:35:23;22.20;33.50
67101;DHT22;54019;61.746;16.106;2022-11-18T07:37:48;22.20;33.50
67101;DHT22;54019;61.746;16.106;2022-11-18T07:40:14;22.20;33.50
67101;DHT22;54019;61.746;16.106;2022-11-18T07:42:42;22.20;33.70
67101;DHT22;54019;61.746;16.106;2022-11-18T07:45:09;22.20;33.70
67101;DHT22;54019;61.746;16.106;2022-11-18T07:47:35;22.20;33.60
67101;DHT22;54019;61.746;16.106;2022-11-18T07:50:01;22.20;33.70
67101;DHT22;54019;61.746;16.106;2022-11-18T07:52:26;22.30;33.50
67101;DHT22;54019;61.746;16.106;2022-11-18T07:54:52;22.40;33.50
67101;DHT22;54019;61.746;16.106;2022-11-18T07:57:18;22.40;33.90
67101;DHT22;54019;61.746;16.106;2022-11-18T07:59:45;22.40;33.80
67101;DHT22;54019;61.746;16.106;2022-11-18T08:02:11;22.50;34.00
67101;DHT22;54019;61.746;16.106;2022-11-18T08:04:37;22.40;34.00
67101;DHT22;54019;61.746;16.106;2022-11-18T08:07:03;22.50;34.10
67101;DHT22;54019;61.746;16.106;2022-11-18T08:09:29;22.40;34.10
67101;DHT22;54019;61.746;16.106;2022-11-18T08:11:54;22.40;34.00
67101;DHT22;54019;61.746;16.106;2022-11-18T08:14:20;22.30;34.50
67101;DHT22;54019;61.746;16.106;2022-11-18T08:16:47;22.30;34.90
67101;DHT22;54019;61.746;16.106;2022-11-18T08:19:13;22.30;34.20
67101;DHT22;54019;61.746;16.106;2022-11-18T08:21:39;22.30;34.60
67101;DHT22;54019;61.746;16.106;2022-11-18T08:24:05;22.30;34.30
67101;DHT22;54019;61.746;16.106;2022-11-18T08:26:31;22.40;34.30
67101;DHT22;54019;61.746;16.106;2022-11-18T08:28:57;22.40;34.30
67101;DHT22;54019;61.746;16.106;2022-11-18T08:31:24;22.40;34.20
67101;DHT22;54019;61.746;16.106;2022-11-18T08:33:55;22.50;34.20
67101;DHT22;54019;61.746;16.106;2022-11-18T08:36:22;22.50;34.30
67101;DHT22;54019;61.746;16.106;2022-11-18T08:38:48;22.50;34.30
67101;DHT22;54019;61.746;16.106;2022-11-18T08:41:16;22.50;34.40
67101;DHT22;54019;61.746;16.106;2022-11-18T08:43:43;22.50;34.50
67101;DHT22;54019;61.746;16.106;2022-11-18T08:46:09;22.50;34.60
67101;DHT22;54019;61.746;16.106;2022-11-18T08:48:35;22.50;34.70
67101;DHT22;54019;61.746;16.106;2022-11-18T08:51:03;22.50;34.80
67101;DHT22;54019;61.746;16.106;2022-11-18T08:53:29;22.40;34.70
67101;DHT22;54019;61.746;16.106;2022-11-18T08:55:55;22.40;34.80
67101;DHT22;54019;61.746;16.106;2022-11-18T08:58:21;22.50;34.80
67101;DHT22;54019;61.746;16.106;2022-11-18T09:00:47;22.50;34.70
67101;DHT22;54019;61.746;16.106;2022-11-18T09:03:13;22.60;34.10
67101;DHT22;54019;61.746;16.106;2022-11-18T09:05:38;22.60;34.80
67101;DHT22;54019;61.746;16.106;2022-11-18T09:08:06;22.70;34.70
67101;DHT22;54019;61.746;16.106;2022-11-18T09:10:31;22.70;34.40
67101;DHT22;54019;61.746;16.106;2022-11-18T09:12:57;22.70;34.40
67101;DHT22;54019;61.746;16.106;2022-11-18T09:15:23;22.70;34.80
67101;DHT22;54019;61.746;16.106;2022-11-18T09:17:49;22.70;34.70
67101;DHT22;54019;61.746;16.106;2022-11-18T09:20:15;22.70;34.90
67101;DHT22;54019;61.746;16.106;2022-11-18T09:22:41;22.60;35.50
67101;DHT22;54019;61.746;16.106;2022-11-18T09:25:09;22.60;35.50
67101;DHT22;54019;61.746;16.106;2022-11-18T09:27:35;22.60;35.70
67101;DHT22;54019;61.746;16.106;2022-11-18T09:30:01;22.60;35.30
67101;DHT22;54019;61.746;16.106;2022-11-18T09:32:26;22.60;34.90
67101;DHT22;54019;61.746;16.106;2022-11-18T09:34:52;22.60;34.50
67101;DHT22;54019;61.746;16.106;2022-11-18T09:37:18;22.70;34.50
67101;DHT22;54019;61.746;16.106;2022-11-18T09:39:44;22.70;34.20
67101;DHT22;54019;61.746;16.106;2022-11-18T09:42:28;22.80;34.00
67101;DHT22;54019;61.746;16.106;2022-11-18T09:45:06;22.70;33.90
67101;DHT22;54019;61.746;16.106;2022-11-18T09:47:36;22.70;33.80
67101;DHT22;54019;61.746;16.106;2022-11-18T09:50:04;22.70;34.20
67101;DHT22;54019;61.746;16.106;2022-11-18T09:52:38;22.60;34.20
67101;DHT22;54019;61.746;16.106;2022-11-18T09:55:10;22.50;33.90
67101;DHT22;54019;61.746;16.106;2022-11-18T09:57:40;22.50;34.10
67101;DHT22;54019;61.746;16.106;2022-11-18T10:00:14;22.50;34.40
67101;DHT22;54019;61.746;16.106;2022-11-18T10:02:48;22.40;34.30
67101;DHT22;54019;61.746;16.106;2022-11-18T10:05:17;22.40;33.90
67101;DHT22;54019;61.746;16.106;2022-11-18T10:07:50;22.40;33.70
67101;DHT22;54019;61.746;16.106;2022-11-18T10:10:22;22.40;33.70
67101;DHT22;54019;61.746;16.106;2022-11-18T10:12:56;22.50;33.60
67101;DHT22;54019;61.746;16.106;2022-11-18T10:15:28;22.50;33.60
67101;DHT22;54019;61.746;16.106;2022-11-18T10:18:03;22.50;33.50
67101;DHT22;54019;61.746;16.106;2022-11-18T10:20:42;22.50;33.40
67101;DHT22;54019;61.746;16.106;2022-11-18T10:23:18;22.50;33.40
67101;DHT22;54019;61.746;16.106;2022-11-18T10:25:45;22.50;33.50
67101;DHT22;54019;61.746;16.106;2022-11-18T10:28:18;22.40;33.30
67101;DHT22;54019;61.746;16.106;2022-11-18T10:30:45;22.40;33.30
67101;DHT22;54019;61.746;16.106;2022-11-18T10:33:32;22.40;33.30
67101;DHT22;54019;61.746;16.106;2022-11-18T10:36:24;22.40;33.40
67101;DHT22;54019;61.746;16.106;2022-11-18T10:39:04;22.30;33.50
67101;DHT22;54019;61.746;16.106;2022-11-18T10:41:40;22.40;33.50
67101;DHT22;54019;61.746;16.106;2022-11-18T10:44:29;22.40;33.50
67101;DHT22;54019;61.746;16.106;2022-11-18T10:46:55;22.40;33.50
67101;DHT22;54019;61.746;16.106;2022-11-18T10:49:21;22.50;33.40
67101;DHT22;54019;61.746;16.106;2022-11-18T10:52:02;22.50;33.40
67101;DHT22;54019;61.746;16.106;2022-11-18T10:54:28;22.50;33.50
67101;DHT22;54019;61.746;16.106;2022-11-18T10:56:56;22.50;33.40
67101;DHT22;54019;61.746;16.106;2022-11-18T10:59:30;22.50;33.50
67101;DHT22;54019;61.746;16.106;2022-11-18T11:01:57;22.50;33.50
67101;DHT22;54019;61.746;16.106;2022-11-18T11:04:24;22.50;33.50
67101;DHT22;54019;61.746;16.106;2022-11-18T11:06:49;22.40;33.50
67101;DHT22;54019;61.746;16.106;2022-11-18T11:09:25;22.40;33.60
67101;DHT22;54019;61.746;16.106;2022-11-18T11:11:59;22.40;33.70
67101;DHT22;54019;61.746;16.106;2022-11-18T11:14:31;22.30;33.70
67101;DHT22;54019;61.746;16.106;2022-11-18T11:17:04;22.30;33.70
67101;DHT22;54019;61.746;16.106;2022-11-18T11:19:37;22.40;33.60
67101;DHT22;54019;61.746;16.106;2022-11-18T11:22:09;22.40;33.50
67101;DHT22;54019;61.746;16.106;2022-11-18T11:24:35;22.40;33.50
67101;DHT22;54019;61.746;16.106;2022-11-18T11:27:09;22.40;33.60
67101;DHT22;54019;61.746;16.106;2022-11-18T11:29:58;22.60;33.80
67101;DHT22;54019;61.746;16.106;2022-11-18T11:32:32;22.60;34.10
67101;DHT22;54019;61.746;16.106;2022-11-18T11:35:10;22.60;33.90
67101;DHT22;54019;61.746;16.106;2022-11-18T11:37:47;22.60;33.90
67101;DHT22;54019;61.746;16.106;2022-11-18T11:40:22;22.60;33.90
67101;DHT22;54019;61.746;16.106;2022-11-18T11:42:57;22.60;33.80
67101;DHT22;54019;61.746;16.106;2022-11-18T11:45:36;22.50;33.80
67101;DHT22;54019;61.746;16.106;2022-11-18T11:48:17;22.50;33.90
67101;DHT22;54019;61.746;16.106;2022-11-18T11:50:51;22.40;33.70
67101;DHT22;54019;61.746;16.106;2022-11-18T11:53:23;22.40;33.50
67101;DHT22;54019;61.746;16.106;2022-11-18T11:56:01;22.40;33.40
67101;DHT22;54019;61.746;16.106;2022-11-18T11:58:46;22.50;33.40
67101;DHT22;54019;61.746;16.106;2022-11-18T12:01:21;22.60;33.30
67101;DHT22;54019;61.746;16.106;2022-11-18T12:03:55;22.50;33.30
67101;DHT22;54019;61.746;16.106;2022-11-18T12:06:23;22.60;33.30
67101;DHT22;54019;61.746;16.106;2022-11-18T12:08:59;22.60;33.20
67101;DHT22;54019;61.746;16.106;2022-11-18T12:11:32;22.60;33.20
67101;DHT22;54019;61.746;16.106;2022-11-18T12:14:02;22.50;33.20
67101;DHT22;54019;61.746;16.106;2022-11-18T12:16:35;22.50;33.20
67101;DHT22;54019;61.746;16.106;2022-11-18T12:19:09;22.50;33.20
67101;DHT22;54019;61.746;16.106;2022-11-18T12:21:52;22.40;33.20
67101;DHT22;54019;61.746;16.106;2022-11-18T12:24:32;22.50;33.40
67101;DHT22;54019;61.746;16.106;2022-11-18T12:27:00;22.40;33.30
67101;DHT22;54019;61.746;16.106;2022-11-18T12:29:34;22.40;33.20
67101;DHT22;54019;61.746;16.106;2022-11-18T12:32:02;22.40;33.20
67101;DHT22;54019;61.746;16.106;2022-11-18T12:34:31;22.40;33.20
67101;DHT22;54019;61.746;16.106;2022-11-18T12:39:59;22.40;33.00
67101;DHT22;54019;61.746;16.106;2022-11-18T12:42:49;22.50;32.90
67101;DHT22;54019;61.746;16.106;2022-11-18T12:45:46;22.50;32.80
67101;DHT22;54019;61.746;16.106;2022-11-18T12:48:34;22.50;32.80
67101;DHT22;54019;61.746;16.106;2022-11-18T12:51:39;22.50;32.80
67101;DHT22;54019;61.746;16.106;2022-11-18T12:53:49;22.40;32.70
67101;DHT22;54019;61.746;16.106;2022-11-18T12:56:21;22.40;32.80
67101;DHT22;54019;61.746;16.106;2022-11-18T12:58:49;22.40;32.90
67101;DHT22;54019;61.746;16.106;2022-11-18T13:01:17;22.30;36.50
67101;DHT22;54019;61.746;16.106;2022-11-18T13:03:45;22.30;39.20
67101;DHT22;54019;61.746;16.106;2022-11-18T13:06:22;22.30;40.30
67101;DHT22;54019;61.746;16.106;2022-11-18T13:08:52;22.40;40.90
67101;DHT22;54019;61.746;16.106;2022-11-18T13:11:18;22.40;38.10
67101;DHT22;54019;61.746;16.106;2022-11-18T13:13:45;22.30;38.10
67101;DHT22;54019;61.746;16.106;2022-11-18T13:16:18;22.30;38.50
67101;DHT22;54019;61.746;16.106;2022-11-18T13:18:51;22.30;38.70
67101;DHT22;54019;61.746;16.106;2022-11-18T13:21:22;22.30;37.80
67101;DHT22;54019;61.746;16.106;2022-11-18T13:23:48;22.20;36.80
67101;DHT22;54019;61.746;16.106;2022-11-18T13:26:24;22.10;36.40
67101;DHT22;54019;61.746;16.106;2022-11-18T13:29:06;22.00;36.20
67101;DHT22;54019;61.746;16.106;2022-11-18T13:31:42;22.00;36.30
67101;DHT22;54019;61.746;16.106;2022-11-18T13:34:17;21.90;35.80
67101;DHT22;54019;61.746;16.106;2022-11-18T13:36:44;22.00;33.80
67101;DHT22;54019;61.746;16.106;2022-11-18T13:39:23;22.00;33.00
67101;DHT22;54019;61.746;16.106;2022-11-18T13:42:00;22.00;33.10
67101;DHT22;54019;61.746;16.106;2022-11-18T13:44:27;22.10;33.10
67101;DHT22;54019;61.746;16.106;2022-11-18T13:46:57;22.00;33.00
67101;DHT22;54019;61.746;16.106;2022-11-18T13:49:36;22.00;32.50
67101;DHT22;54019;61.746;16.106;2022-11-18T13:52:03;22.00;32.90
67101;DHT22;54019;61.746;16.106;2022-11-18T13:54:29;22.00;33.20
67101;DHT22;54019;61.746;16.106;2022-11-18T13:56:55;22.00;33.50
67101;DHT22;54019;61.746;16.106;2022-11-18T13:59:22;22.00;33.30
67101;DHT22;54019;61.746;16.106;2022-11-18T14:01:54;21.90;33.50
67101;DHT22;54019;61.746;16.106;2022-11-18T14:04:21;21.90;33.10
67101;DHT22;54019;61.746;16.106;2022-11-18T14:06:49;22.00;32.60
67101;DHT22;54019;61.746;16.106;2022-11-18T14:09:22;22.00;32.50
67101;DHT22;54019;61.746;16.106;2022-11-18T14:12:00;22.00;32.30
67101;DHT22;54019;61.746;16.106;2022-11-18T14:14:29;22.00;32.80
67101;DHT22;54019;61.746;16.106;2022-11-18T14:17:03;22.00;32.40
67101;DHT22;54019;61.746;16.106;2022-11-18T14:19:30;22.10;32.60
67101;DHT22;54019;61.746;16.106;2022-11-18T14:22:04;22.10;32.60
67101;DHT22;54019;61.746;16.106;2022-11-18T14:24:30;22.10;32.60
67101;DHT22;54019;61.746;16.106;2022-11-18T14:26:55;22.10;32.60
67101;DHT22;54019;61.746;16.106;2022-11-18T14:29:21;22.10;32.70
67101;DHT22;54019;61.746;16.106;2022-11-18T14:32:03;22.00;32.90
67101;DHT22;54019;61.746;16.106;2022-11-18T14:34:29;22.00;33.30
67101;DHT22;54019;61.746;16.106;2022-11-18T14:36:55;21.90;33.80
67101;DHT22;54019;61.746;16.106;2022-11-18T14:39:23;21.90;33.80
67101;DHT22;54019;61.746;16.106;2022-11-18T14:41:50;22.00;34.00
67101;DHT22;54019;61.746;16.106;2022-11-18T14:44:17;22.00;34.10
67101;DHT22;54019;61.746;16.106;2022-11-18T14:46:44;22.00;34.00
67101;DHT22;54019;61.746;16.106;2022-11-18T14:49:14;22.00;34.10
67101;DHT22;54019;61.746;16.106;2022-11-18T14:51:41;22.00;34.20
67101;DHT22;54019;61.746;16.106;2022-11-18T14:54:10;22.10;34.90
67101;DHT22;54019;61.746;16.106;2022-11-18T14:56:37;22.20;35.30
67101;DHT22;54019;61.746;16.106;2022-11-18T14:59:03;22.20;35.40
67101;DHT22;54019;61.746;16.106;2022-11-18T15:01:29;22.30;35.30
67101;DHT22;54019;61.746;16.106;2022-11-18T15:03:54;22.30;35.60
67101;DHT22;54019;61.746;16.106;2022-11-18T15:06:21;22.40;35.60
67101;DHT22;54019;61.746;16.106;2022-11-18T15:08:52;22.40;35.50
67101;DHT22;54019;61.746;16.106;2022-11-18T15:11:17;22.40;35.50
67101;DHT22;54019;61.746;16.106;2022-11-18T15:13:45;22.40;35.60
67101;DHT22;54019;61.746;16.106;2022-11-18T15:16:16;22.30;35.70
67101;DHT22;54019;61.746;16.106;2022-11-18T15:18:43;22.30;35.80
67101;DHT22;54019;61.746;16.106;2022-11-18T15:21:09;22.30;35.80
67101;DHT22;54019;61.746;16.106;2022-11-18T15:23:35;22.20;35.50
67101;DHT22;54019;61.746;16.106;2022-11-18T15:26:14;22.40;35.30
67101;DHT22;54019;61.746;16.106;2022-11-18T15:28:40;22.40;35.10
67101;DHT22;54019;61.746;16.106;2022-11-18T15:31:07;22.40;35.00
67101;DHT22;54019;61.746;16.106;2022-11-18T15:33:33;22.40;34.90